Time;durP1;ratioP1;P1;durP2;ratioP2;P2;SDS_P1;SDS_P2;PMS_P1;PMS_P2;Temp;Humidity;BMP_temperature;BMP_pressure;BME280_temperature;BME280_humidity;BME280_pressure;Samples;Min_cycle;Max_cycle;Signal;HPM_P1;HPM_P2
2022/08/29 00:00:47;;;;;;;;;;;;;;;24.38;62.28;99741.69;4419207;32;33556;-85
2022/08/29 00:03:17;;;;;;;;;;;;;;;24.74;61.19;99738.91;4419378;32;34460;-85
2022/08/29 00:05:44;;;;;;;;;;;;;;;24.89;60.59;99744.56;4394732;32;33825;-85
2022/08/29 00:08:18;;;;;;;;;;;;;;;24.80;60.91;99734.72;4407687;32;33560;-86
2022/08/29 00:10:45;;;;;;;;;;;;;;;24.83;60.74;99737.94;4394970;32;33221;-85
2022/08/29 00:13:13;;;;;;;;;;;;;;;24.73;61.24;99739.88;4419199;32;33989;-85
2022/08/29 00:15:41;;;;;;;;;;;;;;;24.92;60.50;99746.91;4407136;32;34363;-85
2022/08/29 00:18:12;;;;;;;;;;;;;;;24.52;61.75;99748.38;4407227;32;33414;-85
2022/08/29 00:20:40;;;;;;;;;;;;;;;24.75;61.01;99740.59;4406541;32;33459;-85
2022/08/29 00:23:08;;;;;;;;;;;;;;;24.76;60.92;99740.41;4419022;32;33360;-85
2022/08/29 00:25:35;;;;;;;;;;;;;;;24.56;61.73;99746.19;4406585;32;34679;-85
2022/08/29 00:28:03;;;;;;;;;;;;;;;24.17;62.99;99742.00;4419583;32;35076;-85
2022/08/29 00:30:31;;;;;;;;;;;;;;;24.36;62.36;99745.53;4419359;32;33464;-85
2022/08/29 00:32:58;;;;;;;;;;;;;;;24.61;61.50;99741.19;4407365;32;34888;-85
2022/08/29 00:35:31;;;;;;;;;;;;;;;24.81;60.84;99745.34;4392417;32;32844;-85
2022/08/29 00:37:59;;;;;;;;;;;;;;;24.42;62.34;99744.91;4407032;32;33038;-85
2022/08/29 00:40:32;;;;;;;;;;;;;;;24.25;62.97;99747.44;4407239;32;33192;-85
2022/08/29 00:42:59;;;;;;;;;;;;;;;24.38;62.46;99749.78;4406926;32;34490;-86
2022/08/29 00:45:27;;;;;;;;;;;;;;;24.48;61.99;99750.53;4407338;32;35031;-86
2022/08/29 00:47:56;;;;;;;;;;;;;;;24.23;62.86;99752.16;4394202;32;33718;-85
2022/08/29 00:50:28;;;;;;;;;;;;;;;24.21;62.85;99753.31;4394085;32;32700;-85
2022/08/29 00:52:57;;;;;;;;;;;;;;;24.41;62.10;99762.13;4389450;32;33905;-85
2022/08/29 00:55:26;;;;;;;;;;;;;;;24.46;61.79;99757.09;4403586;32;33014;-86
2022/08/29 00:57:55;;;;;;;;;;;;;;;24.42;61.96;99753.84;4381153;32;33569;-86
2022/08/29 01:00:24;;;;;;;;;;;;;;;24.31;62.39;99758.59;4393280;32;34124;-85
2022/08/29 01:02:53;;;;;;;;;;;;;;;24.55;61.44;99766.97;4406195;32;34919;-86
2022/08/29 01:05:21;;;;;;;;;;;;;;;24.46;61.72;99773.28;4393658;32;36257;-86
2022/08/29 01:07:50;;;;;;;;;;;;;;;24.43;61.82;99760.09;4393725;32;34681;-87
2022/08/29 01:13:05;;;;;;;;;;;;;;;24.40;61.81;99765.81;4405396;32;34612;-88
2022/08/29 01:15:32;;;;;;;;;;;;;;;24.37;61.92;99766.13;4381636;32;33000;-88
2022/08/29 01:18:00;;;;;;;;;;;;;;;24.09;62.82;99766.19;4380426;32;34325;-88
2022/08/29 01:20:50;;;;;;;;;;;;;;;24.24;62.30;99761.94;4394674;32;33911;-87
2022/08/29 01:23:26;;;;;;;;;;;;;;;24.19;62.49;99764.25;4403671;32;34695;-87
2022/08/29 01:25:54;;;;;;;;;;;;;;;24.26;62.21;99765.34;4392523;32;33799;-87
2022/08/29 01:28:24;;;;;;;;;;;;;;;23.99;63.13;99762.72;4395756;32;34512;-88
2022/08/29 01:31:03;;;;;;;;;;;;;;;23.82;63.84;99777.03;4395364;32;33272;-86
2022/08/29 01:33:40;;;;;;;;;;;;;;;24.04;62.99;99773.91;4382300;32;32713;-85
2022/08/29 01:36:10;;;;;;;;;;;;;;;24.14;62.64;99773.81;4394455;32;34651;-85
2022/08/29 01:38:40;;;;;;;;;;;;;;;23.98;63.19;99777.22;4381599;32;33912;-85
2022/08/29 01:41:09;;;;;;;;;;;;;;;23.97;63.19;99768.25;4395848;32;33502;-85
2022/08/29 01:43:41;;;;;;;;;;;;;;;23.84;63.65;99775.06;4380975;32;33025;-85
2022/08/29 01:46:11;;;;;;;;;;;;;;;23.95;63.11;99770.28;4370765;32;33202;-85
2022/08/29 01:48:39;;;;;;;;;;;;;;;23.77;63.73;99770.25;4395461;32;34145;-85
2022/08/29 01:51:07;;;;;;;;;;;;;;;23.54;64.59;99768.94;4383557;32;32328;-85
2022/08/29 01:53:35;;;;;;;;;;;;;;;23.62;64.13;99766.34;4398096;32;33873;-85
2022/08/29 01:56:17;;;;;;;;;;;;;;;23.96;63.01;99763.03;4393775;32;33537;-85
2022/08/29 01:58:46;;;;;;;;;;;;;;;23.71;63.68;99768.19;4404088;32;35019;-84
2022/08/29 02:01:14;;;;;;;;;;;;;;;23.55;64.33;99776.06;4403390;32;33674;-84
2022/08/29 02:03:42;;;;;;;;;;;;;;;23.38;64.91;99774.16;4403473;32;34537;-85
2022/08/29 02:06:10;;;;;;;;;;;;;;;23.60;64.03;99779.16;4413933;32;33810;-84
2022/08/29 02:08:38;;;;;;;;;;;;;;;23.63;63.86;99768.03;4405359;32;33502;-85
2022/08/29 02:11:10;;;;;;;;;;;;;;;23.47;64.30;99768.72;4383438;32;32091;-87
2022/08/29 02:13:38;;;;;;;;;;;;;;;23.68;63.54;99773.84;4383483;32;32885;-87
2022/08/29 02:16:07;;;;;;;;;;;;;;;23.61;63.75;99767.38;4414591;32;34211;-84
2022/08/29 02:18:35;;;;;;;;;;;;;;;23.70;63.38;99766.50;4386005;32;34199;-84
2022/08/29 02:21:02;;;;;;;;;;;;;;;23.81;62.97;99764.56;4383988;32;33395;-84
2022/08/29 02:23:32;;;;;;;;;;;;;;;23.81;62.80;99765.41;4390583;32;33532;-84
2022/08/29 02:26:00;;;;;;;;;;;;;;;23.24;64.56;99768.25;4415564;32;34321;-85
2022/08/29 02:28:27;;;;;;;;;;;;;;;23.31;64.37;99762.25;4388350;32;33866;-84
2022/08/29 02:30:55;;;;;;;;;;;;;;;23.30;64.51;99749.81;4418709;32;31865;-84
2022/08/29 02:33:23;;;;;;;;;;;;;;;23.26;64.59;99751.94;4393607;32;33929;-84
2022/08/29 02:35:52;;;;;;;;;;;;;;;23.45;63.81;99748.28;4413028;32;34343;-84
2022/08/29 02:38:20;;;;;;;;;;;;;;;23.18;64.77;99758.09;4400959;32;35124;-85
2022/08/29 02:40:48;;;;;;;;;;;;;;;23.56;63.36;99745.41;4415220;32;33534;-84
2022/08/29 02:43:18;;;;;;;;;;;;;;;23.15;64.69;99744.91;4402557;32;34180;-84
2022/08/29 02:45:46;;;;;;;;;;;;;;;22.99;65.19;99750.94;4387492;32;34396;-84
2022/08/29 02:48:16;;;;;;;;;;;;;;;23.00;64.98;99754.47;4391234;32;34141;-84
2022/08/29 02:50:45;;;;;;;;;;;;;;;23.16;64.33;99756.53;4385449;32;32134;-84
2022/08/29 02:53:14;;;;;;;;;;;;;;;23.13;64.26;99746.91;4401523;32;34075;-84
2022/08/29 02:55:42;;;;;;;;;;;;;;;23.17;64.06;99751.00;4414145;32;33105;-84
2022/08/29 02:58:09;;;;;;;;;;;;;;;22.82;65.52;99750.81;4400894;32;34789;-84
2022/08/29 03:00:38;;;;;;;;;;;;;;;22.88;65.19;99748.41;4393234;32;32206;-85
2022/08/29 03:03:07;;;;;;;;;;;;;;;22.93;64.86;99751.53;4405687;32;34088;-85
2022/08/29 03:05:35;;;;;;;;;;;;;;;22.92;64.79;99754.34;4410578;32;34157;-85
2022/08/29 03:08:06;;;;;;;;;;;;;;;22.92;64.76;99751.66;4398175;32;34635;-85
2022/08/29 03:10:34;;;;;;;;;;;;;;;22.58;66.08;99760.22;4413072;32;33241;-85
2022/08/29 03:13:02;;;;;;;;;;;;;;;22.78;65.50;99765.56;4404844;32;33526;-85
2022/08/29 03:15:31;;;;;;;;;;;;;;;22.77;65.52;99764.72;4400121;32;34778;-85
2022/08/29 03:18:00;;;;;;;;;;;;;;;23.09;64.24;99761.66;4386585;32;34529;-86
2022/08/29 03:20:27;;;;;;;;;;;;;;;23.04;64.39;99769.34;4391188;32;32423;-87
2022/08/29 03:22:56;;;;;;;;;;;;;;;23.07;64.17;99774.41;4401431;32;33966;-87
2022/08/29 03:25:23;;;;;;;;;;;;;;;22.92;64.50;99773.19;4389852;32;33879;-85
2022/08/29 03:27:51;;;;;;;;;;;;;;;22.99;64.26;99779.72;4394860;32;33033;-85
2022/08/29 03:30:19;;;;;;;;;;;;;;;22.95;64.42;99784.53;4416257;32;34036;-84
2022/08/29 03:32:49;;;;;;;;;;;;;;;22.79;64.94;99794.16;4402574;32;33949;-84
2022/08/29 03:35:18;;;;;;;;;;;;;;;22.98;64.20;99783.41;4386236;32;33607;-86
2022/08/29 03:37:46;;;;;;;;;;;;;;;22.89;64.59;99784.28;4400773;32;34998;-85
2022/08/29 03:40:14;;;;;;;;;;;;;;;22.86;64.46;99792.63;4384754;32;32352;-84
2022/08/29 03:42:42;;;;;;;;;;;;;;;22.88;64.34;99788.78;4410820;32;34008;-84
2022/08/29 03:45:11;;;;;;;;;;;;;;;23.02;63.96;99794.72;4403406;32;34236;-84
2022/08/29 03:47:40;;;;;;;;;;;;;;;23.13;63.49;99787.31;4399755;32;32940;-85
2022/08/29 03:50:08;;;;;;;;;;;;;;;22.77;64.62;99798.88;4387798;32;33312;-84
2022/08/29 03:52:36;;;;;;;;;;;;;;;22.85;64.46;99812.47;4386839;32;32644;-84
2022/08/29 03:55:07;;;;;;;;;;;;;;;22.96;63.98;99810.47;4389633;32;33140;-84
2022/08/29 03:57:35;;;;;;;;;;;;;;;22.90;64.29;99819.13;4376577;32;33515;-86
2022/08/29 04:00:11;;;;;;;;;;;;;;;23.00;63.74;99819.94;4385241;32;32516;-86
2022/08/29 04:02:44;;;;;;;;;;;;;;;22.81;64.49;99830.72;4388952;32;34106;-88
2022/08/29 04:05:14;;;;;;;;;;;;;;;22.87;64.21;99827.47;4411293;32;34614;-87
2022/08/29 04:07:44;;;;;;;;;;;;;;;22.78;64.47;99824.78;4402325;32;34498;-87
2022/08/29 04:10:15;;;;;;;;;;;;;;;22.90;64.35;99829.06;4400540;32;33631;-84
2022/08/29 04:12:44;;;;;;;;;;;;;;;22.81;64.66;99835.28;4404437;32;33686;-85
2022/08/29 04:15:12;;;;;;;;;;;;;;;22.80;64.59;99838.97;4415015;32;34046;-85
2022/08/29 04:17:42;;;;;;;;;;;;;;;22.83;64.41;99833.28;4412470;32;34073;-85
2022/08/29 04:20:27;;;;;;;;;;;;;;;22.74;64.67;99834.97;4400164;32;33694;-84
2022/08/29 04:22:58;;;;;;;;;;;;;;;22.53;65.36;99827.09;4386391;32;33232;-84
2022/08/29 04:25:27;;;;;;;;;;;;;;;22.85;64.31;99831.31;4413079;32;32696;-84
2022/08/29 04:27:54;;;;;;;;;;;;;;;22.89;64.09;99827.38;4389997;32;33567;-83
2022/08/29 04:30:23;;;;;;;;;;;;;;;22.63;65.29;99832.47;4410347;32;33840;-83
2022/08/29 04:32:52;;;;;;;;;;;;;;;22.66;65.21;99841.09;4393756;32;32674;-83
2022/08/29 04:35:23;;;;;;;;;;;;;;;22.68;65.27;99838.25;4400296;32;34669;-84
2022/08/29 04:37:56;;;;;;;;;;;;;;;22.44;65.83;99847.63;4414631;32;34399;-85
2022/08/29 04:40:25;;;;;;;;;;;;;;;22.53;65.85;99848.63;4389668;32;33830;-85
2022/08/29 04:42:53;;;;;;;;;;;;;;;22.46;66.06;99844.81;4387184;32;32674;-85
2022/08/29 04:45:26;;;;;;;;;;;;;;;22.71;65.10;99849.59;4396554;32;34030;-86
2022/08/29 04:47:57;;;;;;;;;;;;;;;22.87;64.57;99840.06;4412452;32;34178;-85
2022/08/29 04:50:30;;;;;;;;;;;;;;;22.71;64.96;99852.28;4398210;32;33284;-86
2022/08/29 04:52:58;;;;;;;;;;;;;;;22.88;64.74;99849.84;4414053;32;33704;-85
2022/08/29 04:55:25;;;;;;;;;;;;;;;22.71;65.09;99849.59;4404703;32;34101;-84
2022/08/29 04:57:55;;;;;;;;;;;;;;;22.81;65.09;99854.97;4397997;32;34491;-85
2022/08/29 05:00:26;;;;;;;;;;;;;;;23.02;64.20;99860.19;4389522;32;33707;-85
2022/08/29 05:02:54;;;;;;;;;;;;;;;22.89;64.51;99849.75;4386037;32;33542;-87
2022/08/29 05:05:22;;;;;;;;;;;;;;;22.91;64.56;99842.38;4415267;32;35025;-85
2022/08/29 05:07:56;;;;;;;;;;;;;;;23.09;64.01;99850.53;4400794;32;34286;-85
2022/08/29 05:10:27;;;;;;;;;;;;;;;23.52;62.60;99846.41;4413801;32;32765;-85
2022/08/29 05:12:58;;;;;;;;;;;;;;;23.24;63.41;99843.69;4393302;32;34483;-85
2022/08/29 05:15:26;;;;;;;;;;;;;;;23.19;63.83;99862.13;4401895;32;33532;-84
2022/08/29 05:18:17;;;;;;;;;;;;;;;23.22;63.83;99845.69;4399504;32;36115;-85
2022/08/29 05:20:51;;;;;;;;;;;;;;;23.12;64.84;99861.03;4413022;32;32462;-85
2022/08/29 05:23:20;;;;;;;;;;;;;;;22.97;65.05;99857.94;4400618;32;33861;-85
2022/08/29 05:25:53;;;;;;;;;;;;;;;23.57;63.00;99854.91;4415611;32;33756;-85
2022/08/29 05:28:21;;;;;;;;;;;;;;;23.48;63.50;99855.78;4401033;32;33147;-85
2022/08/29 05:30:49;;;;;;;;;;;;;;;23.23;64.10;99855.47;4400772;32;33299;-85
2022/08/29 05:33:17;;;;;;;;;;;;;;;23.28;63.96;99854.19;4409912;32;33377;-85
2022/08/29 05:35:55;;;;;;;;;;;;;;;23.68;62.83;99861.97;4388007;32;33932;-85
2022/08/29 05:38:26;;;;;;;;;;;;;;;23.84;62.02;99861.34;4412191;32;35139;-85
2022/08/29 05:41:08;;;;;;;;;;;;;;;24.04;61.67;99856.66;4390988;32;32575;-85
2022/08/29 05:43:39;;;;;;;;;;;;;;;24.07;61.18;99857.22;4411463;32;34560;-85
2022/08/29 05:46:12;;;;;;;;;;;;;;;23.77;62.39;99861.91;4400494;32;32536;-85
2022/08/29 05:48:47;;;;;;;;;;;;;;;24.23;60.66;99851.97;4403216;32;34240;-85
2022/08/29 05:51:23;;;;;;;;;;;;;;;23.88;62.52;99858.19;4395206;32;33646;-85
2022/08/29 05:53:51;;;;;;;;;;;;;;;24.17;61.25;99868.78;4416077;32;33036;-85
2022/08/29 05:56:19;;;;;;;;;;;;;;;24.17;61.29;99866.09;4393160;32;33480;-85
2022/08/29 05:58:51;;;;;;;;;;;;;;;24.38;59.83;99865.81;4417983;32;34560;-84
2022/08/29 06:01:25;;;;;;;;;;;;;;;24.01;61.12;99868.59;4403865;32;32291;-84
2022/08/29 06:03:54;;;;;;;;;;;;;;;24.22;60.91;99865.63;4403817;32;33902;-84
2022/08/29 06:06:28;;;;;;;;;;;;;;;24.12;61.49;99864.84;4409590;32;33927;-85
2022/08/29 06:08:58;;;;;;;;;;;;;;;24.24;61.25;99867.16;4416736;32;33939;-84
2022/08/29 06:11:28;;;;;;;;;;;;;;;24.74;59.83;99874.75;4408291;32;32109;-84
2022/08/29 06:14:08;;;;;;;;;;;;;;;24.62;59.06;99873.28;4407022;32;34026;-85
2022/08/29 06:16:39;;;;;;;;;;;;;;;24.66;59.15;99873.84;4406641;32;34751;-85
2022/08/29 06:19:07;;;;;;;;;;;;;;;24.99;58.74;99874.94;4396486;32;34621;-85
2022/08/29 06:21:41;;;;;;;;;;;;;;;24.84;58.88;99879.22;4419454;32;31954;-85
2022/08/29 06:24:20;;;;;;;;;;;;;;;25.05;58.04;99887.81;4397051;32;33191;-86
2022/08/29 06:26:50;;;;;;;;;;;;;;;25.11;58.63;99891.75;4408462;32;33378;-86
2022/08/29 06:29:30;;;;;;;;;;;;;;;25.10;58.21;99890.06;4419880;32;35182;-86
2022/08/29 06:32:08;;;;;;;;;;;;;;;24.84;58.14;99895.44;4408654;32;33417;-85
2022/08/29 06:34:36;;;;;;;;;;;;;;;25.13;58.10;99893.31;4395291;32;33246;-86
2022/08/29 06:37:04;;;;;;;;;;;;;;;25.06;57.97;99891.34;4420373;32;35049;-85
2022/08/29 06:39:36;;;;;;;;;;;;;;;25.61;57.12;99897.31;4391285;32;33348;-87
2022/08/29 06:42:04;;;;;;;;;;;;;;;25.66;56.82;99900.38;4403600;32;33370;-87
2022/08/29 06:44:33;;;;;;;;;;;;;;;25.20;58.21;99907.88;4401383;32;34380;-87
2022/08/29 06:47:01;;;;;;;;;;;;;;;25.58;57.45;99903.03;4401791;32;34094;-87
2022/08/29 06:49:31;;;;;;;;;;;;;;;25.96;56.02;99906.28;4406766;32;34679;-88
2022/08/29 06:51:59;;;;;;;;;;;;;;;26.11;56.12;99910.06;4401889;32;32484;-88
2022/08/29 06:54:27;;;;;;;;;;;;;;;26.06;55.73;99912.41;4405498;32;34036;-87
2022/08/29 06:56:58;;;;;;;;;;;;;;;25.93;56.29;99912.03;4418169;32;33650;-86
2022/08/29 06:59:29;;;;;;;;;;;;;;;25.59;57.33;99915.56;4405291;32;34856;-88
2022/08/29 07:04:36;;;;;;;;;;;;;;;26.25;54.96;99906.75;4416316;32;34065;-88
2022/08/29 07:07:13;;;;;;;;;;;;;;;26.40;55.05;99903.38;4417377;32;34338;-87
2022/08/29 07:09:43;;;;;;;;;;;;;;;26.12;54.87;99911.75;4404619;32;33899;-87
2022/08/29 07:12:12;;;;;;;;;;;;;;;26.23;55.06;99913.31;4393843;32;35224;-88
2022/08/29 07:14:43;;;;;;;;;;;;;;;26.26;54.13;99915.69;4406505;32;32691;-88
2022/08/29 07:17:12;;;;;;;;;;;;;;;26.34;55.21;99920.25;4418595;32;33926;-88
2022/08/29 07:19:57;;;;;;;;;;;;;;;26.23;54.70;99913.31;4405324;32;33938;-88
2022/08/29 07:22:26;;;;;;;;;;;;;;;26.39;54.56;99917.91;4391815;32;32579;-88
2022/08/29 07:24:55;;;;;;;;;;;;;;;26.46;55.04;99917.13;4406221;32;33195;-89
2022/08/29 07:27:23;;;;;;;;;;;;;;;26.45;54.42;99911.88;4404538;32;34081;-88
2022/08/29 07:29:52;;;;;;;;;;;;;;;26.92;53.23;99917.50;4391851;32;33699;-88
2022/08/29 07:32:22;;;;;;;;;;;;;;;27.06;52.82;99914.12;4403918;32;33719;-88
2022/08/29 07:34:52;;;;;;;;;;;;;;;27.13;52.37;99919.72;4404082;32;34846;-88
2022/08/29 07:37:24;;;;;;;;;;;;;;;26.83;53.45;99917.69;4392363;32;32816;-88
2022/08/29 07:39:52;;;;;;;;;;;;;;;27.55;51.99;99914.06;4419405;32;32917;-88
2022/08/29 07:42:27;;;;;;;;;;;;;;;27.56;52.68;99910.31;4421104;32;32414;-88
2022/08/29 07:44:57;;;;;;;;;;;;;;;27.53;52.25;99918.78;4391917;32;33006;-88
2022/08/29 07:47:28;;;;;;;;;;;;;;;27.71;50.91;99921.31;4404122;32;33007;-88
2022/08/29 07:52:41;;;;;;;;;;;;;;;27.96;50.91;99919.34;4416319;32;34669;-89
2022/08/29 07:55:20;;;;;;;;;;;;;;;28.23;50.42;99914.47;4394773;32;33009;-89
2022/08/29 07:57:55;;;;;;;;;;;;;;;28.48;51.08;99915.19;4392531;32;32704;-89
2022/08/29 08:00:27;;;;;;;;;;;;;;;28.60;49.50;99912.94;4404648;32;33037;-88
2022/08/29 08:02:56;;;;;;;;;;;;;;;28.62;48.41;99909.00;4383230;32;32938;-88
2022/08/29 08:05:31;;;;;;;;;;;;;;;28.11;49.38;99915.91;4399425;32;34943;-89
2022/08/29 08:08:01;;;;;;;;;;;;;;;28.32;48.95;99918.84;4381645;32;34739;-88
2022/08/29 08:11:13;;;;;;;;;;;;;;;28.21;50.15;99921.97;4392986;32;33227;-89
2022/08/29 08:13:48;;;;;;;;;;;;;;;28.06;49.95;99930.03;4380174;32;32401;-89
2022/08/29 08:16:17;;;;;;;;;;;;;;;28.08;50.52;99928.81;4408594;32;34050;-89
2022/08/29 08:18:47;;;;;;;;;;;;;;;28.32;49.87;99927.84;4398123;32;34210;-88
2022/08/29 08:21:15;;;;;;;;;;;;;;;28.45;49.71;99923.72;4389685;32;32946;-88
2022/08/29 08:23:51;;;;;;;;;;;;;;;28.70;49.97;99922.53;4396185;32;34277;-89
2022/08/29 08:26:20;;;;;;;;;;;;;;;28.91;48.04;99930.00;4388081;32;33047;-89
2022/08/29 08:28:52;;;;;;;;;;;;;;;28.75;47.72;99925.53;4404463;32;32944;-89
2022/08/29 08:31:24;;;;;;;;;;;;;;;28.96;47.43;99916.75;4422995;32;34399;-89
2022/08/29 08:33:54;;;;;;;;;;;;;;;28.79;47.77;99929.59;4409614;32;32557;-89
2022/08/29 08:36:28;;;;;;;;;;;;;;;28.84;48.09;99923.59;4396880;32;33215;-93
2022/08/29 08:39:00;;;;;;;;;;;;;;;28.83;48.29;99925.50;4396929;32;33476;-88
2022/08/29 08:41:50;;;;;;;;;;;;;;;28.68;48.30;99924.59;4395418;32;34162;-89
2022/08/29 08:44:24;;;;;;;;;;;;;;;28.57;48.14;99922.28;4392459;32;33651;-88
2022/08/29 08:46:58;;;;;;;;;;;;;;;28.44;48.42;99927.44;4396650;32;32801;-88
2022/08/29 08:49:33;;;;;;;;;;;;;;;28.30;49.59;99929.91;4408443;32;33600;-89
2022/08/29 08:52:07;;;;;;;;;;;;;;;28.42;48.53;99926.78;4385650;32;33038;-89
2022/08/29 08:54:44;;;;;;;;;;;;;;;28.76;47.54;99921.78;4389935;32;33459;-89
2022/08/29 08:57:18;;;;;;;;;;;;;;;29.01;47.84;99924.37;4386037;32;33259;-89
2022/08/29 08:59:49;;;;;;;;;;;;;;;29.23;46.75;99925.34;4412632;32;32867;-89
2022/08/29 09:02:26;;;;;;;;;;;;;;;29.24;46.67;99924.31;4389228;32;33371;-89
2022/08/29 09:05:18;;;;;;;;;;;;;;;29.19;45.81;99929.44;4394837;32;32815;-89
2022/08/29 09:07:48;;;;;;;;;;;;;;;28.95;46.73;99930.50;4382214;32;32661;-89
2022/08/29 09:10:29;;;;;;;;;;;;;;;28.86;47.48;99923.41;4407050;32;34023;-89
2022/08/29 09:13:22;;;;;;;;;;;;;;;28.64;46.39;99922.41;4407603;32;34275;-89
2022/08/29 09:15:59;;;;;;;;;;;;;;;28.90;46.37;99924.75;4382908;32;32790;-89
2022/08/29 09:18:37;;;;;;;;;;;;;;;29.13;46.80;99917.44;4381993;32;33068;-89
2022/08/29 09:21:15;;;;;;;;;;;;;;;29.11;46.25;99919.50;4382660;32;33133;-89
2022/08/29 09:24:04;;;;;;;;;;;;;;;29.14;45.71;99924.56;4371778;32;33044;-89
2022/08/29 09:26:33;;;;;;;;;;;;;;;29.11;46.92;99922.22;4394489;32;32524;-89
2022/08/29 09:29:12;;;;;;;;;;;;;;;29.09;46.28;99916.13;4382183;32;32537;-89
2022/08/29 09:31:42;;;;;;;;;;;;;;;29.06;46.89;99916.50;4382189;32;33270;-89
2022/08/29 09:34:31;;;;;;;;;;;;;;;29.64;46.78;99917.63;4382641;32;33000;-89
2022/08/29 09:37:30;;;;;;;;;;;;;;;29.41;44.88;99908.69;4396834;32;33567;-89
2022/08/29 09:40:02;;;;;;;;;;;;;;;29.45;45.17;99912.72;4381874;32;32976;-89
2022/08/29 09:42:34;;;;;;;;;;;;;;;29.65;44.82;99911.16;4394738;32;34391;-92
2022/08/29 09:45:23;;;;;;;;;;;;;;;29.81;45.32;99916.38;4394552;32;33133;-87
2022/08/29 09:48:09;;;;;;;;;;;;;;;29.98;44.88;99916.19;4384509;32;31972;-88
2022/08/29 09:53:23;;;;;;;;;;;;;;;30.20;43.88;99915.25;4411094;32;33837;-87
2022/08/29 09:55:52;;;;;;;;;;;;;;;30.21;43.54;99919.66;4408372;32;33353;-88
2022/08/29 09:58:26;;;;;;;;;;;;;;;30.36;43.95;99914.19;4408548;32;32054;-86
2022/08/29 10:00:57;;;;;;;;;;;;;;;30.17;45.02;99915.63;4421115;32;34873;-87
2022/08/29 10:06:04;;;;;;;;;;;;;;;30.42;43.35;99912.56;4408720;32;33243;-87
2022/08/29 10:08:39;;;;;;;;;;;;;;;30.43;42.23;99919.69;4409730;32;33688;-87
2022/08/29 10:11:18;;;;;;;;;;;;;;;30.30;43.24;99926.69;4408619;32;33114;-87
2022/08/29 10:14:03;;;;;;;;;;;;;;;30.37;43.85;99917.75;4396532;32;34154;-87
2022/08/29 10:16:36;;;;;;;;;;;;;;;29.91;43.39;99915.25;4420749;32;32647;-87
2022/08/29 10:19:09;;;;;;;;;;;;;;;30.66;42.06;99914.91;4408644;32;32693;-87
2022/08/29 10:21:48;;;;;;;;;;;;;;;30.25;43.35;99922.88;4401280;32;33809;-87
2022/08/29 10:24:30;;;;;;;;;;;;;;;30.58;42.52;99909.59;4408551;32;33822;-87
2022/08/29 10:27:03;;;;;;;;;;;;;;;30.71;42.58;99917.94;4420291;32;34615;-87
2022/08/29 10:29:36;;;;;;;;;;;;;;;30.34;41.99;99922.56;4420946;32;33158;-87
2022/08/29 10:32:12;;;;;;;;;;;;;;;30.31;43.87;99920.19;4420816;32;34219;-87
2022/08/29 10:34:54;;;;;;;;;;;;;;;31.05;41.86;99921.78;4405662;32;32657;-87
2022/08/29 10:37:21;;;;;;;;;;;;;;;31.41;39.94;99920.84;4413412;32;34161;-87
2022/08/29 10:40:01;;;;;;;;;;;;;;;31.05;40.70;99919.06;4408351;32;32285;-87
2022/08/29 10:42:29;;;;;;;;;;;;;;;31.47;39.63;99917.31;4408685;32;33409;-89
2022/08/29 10:45:13;;;;;;;;;;;;;;;31.51;41.03;99914.00;4408503;32;33397;-90
2022/08/29 10:50:28;;;;;;;;;;;;;;;31.29;39.81;99913.22;4408476;32;32264;-90
2022/08/29 10:53:08;;;;;;;;;;;;;;;30.93;41.33;99909.75;4410830;32;33028;-90
2022/08/29 10:55:59;;;;;;;;;;;;;;;31.16;40.28;99901.34;4410975;32;34040;-90
2022/08/29 11:01:48;;;;;;;;;;;;;;;31.34;40.89;99902.56;4393938;32;32425;-90
2022/08/29 11:04:21;;;;;;;;;;;;;;;30.90;41.05;99899.22;4410873;32;33432;-90
2022/08/29 11:09:41;;;;;;;;;;;;;;;30.75;41.05;99891.97;4422278;32;34749;-90
2022/08/29 11:12:32;;;;;;;;;;;;;;;31.12;40.31;99887.25;4411276;32;32644;-90
2022/08/29 11:15:27;;;;;;;;;;;;;;;31.30;40.53;99894.97;4398921;32;33042;-91
2022/08/29 11:18:11;;;;;;;;;;;;;;;30.78;41.76;99897.03;4398408;32;33710;-90
2022/08/29 11:21:13;;;;;;;;;;;;;;;30.84;42.17;99892.69;4410739;32;34222;-90
2022/08/29 11:23:47;;;;;;;;;;;;;;;31.03;41.30;99893.87;4368289;32;32254;-87
2022/08/29 11:26:25;;;;;;;;;;;;;;;31.52;39.23;99887.53;4417080;32;34152;-87
2022/08/29 11:29:00;;;;;;;;;;;;;;;31.44;39.19;99880.38;4406302;32;34192;-87
2022/08/29 11:31:36;;;;;;;;;;;;;;;31.50;39.25;99884.19;4421800;32;34076;-87
2022/08/29 11:34:11;;;;;;;;;;;;;;;31.61;39.60;99880.88;4410583;32;32577;-86
2022/08/29 11:37:08;;;;;;;;;;;;;;;31.41;38.74;99879.94;4394721;32;33297;-87
2022/08/29 11:39:57;;;;;;;;;;;;;;;31.21;40.28;99886.06;4389503;32;34402;-87
2022/08/29 11:45:28;;;;;;;;;;;;;;;31.19;38.75;99882.66;4413435;32;34158;-88
2022/08/29 11:51:00;;;;;;;;;;;;;;;31.10;38.76;99873.81;4411216;32;33571;-87
2022/08/29 11:53:36;;;;;;;;;;;;;;;31.34;39.04;99880.75;4407456;32;35069;-88
2022/08/29 11:56:14;;;;;;;;;;;;;;;31.68;38.74;99881.78;4394991;32;33017;-87
2022/08/29 11:58:46;;;;;;;;;;;;;;;31.50;38.32;99884.19;4422666;32;34384;-87
2022/08/29 12:01:24;;;;;;;;;;;;;;;31.22;39.07;99874.09;4410425;32;33782;-87
2022/08/29 12:04:04;;;;;;;;;;;;;;;31.89;37.49;99871.81;4422785;32;33426;-87
2022/08/29 12:09:23;;;;;;;;;;;;;;;31.49;38.86;99877.06;4417787;32;33913;-87
2022/08/29 12:12:03;;;;;;;;;;;;;;;31.76;38.17;99867.97;4410641;32;34780;-87
2022/08/29 12:17:21;;;;;;;;;;;;;;;31.34;38.14;99864.37;4408043;32;33505;-87
2022/08/29 12:20:04;;;;;;;;;;;;;;;31.38;39.03;99870.25;4400193;32;33237;-87
2022/08/29 12:22:51;;;;;;;;;;;;;;;31.47;38.59;99857.28;4399379;32;32734;-87
2022/08/29 12:25:22;;;;;;;;;;;;;;;31.75;38.06;99865.41;4407678;32;33060;-87
2022/08/29 12:28:01;;;;;;;;;;;;;;;32.00;37.62;99858.44;4419954;32;33306;-87
2022/08/29 12:30:38;;;;;;;;;;;;;;;32.19;38.56;99854.06;4424270;32;34262;-87
2022/08/29 12:33:12;;;;;;;;;;;;;;;32.46;37.10;99846.78;4410079;32;34010;-87
2022/08/29 12:36:00;;;;;;;;;;;;;;;32.40;36.22;99842.16;4420301;32;35219;-87
2022/08/29 12:38:55;;;;;;;;;;;;;;;32.48;35.60;99838.41;4406424;32;32785;-87
2022/08/29 12:41:45;;;;;;;;;;;;;;;32.06;38.98;99835.75;4409708;32;33440;-87
2022/08/29 12:44:16;;;;;;;;;;;;;;;32.56;37.41;99840.91;4415375;32;33953;-87
2022/08/29 12:46:47;;;;;;;;;;;;;;;32.14;35.63;99831.97;4397659;32;34184;-87
2022/08/29 12:49:35;;;;;;;;;;;;;;;32.71;35.76;99827.03;4409650;32;33331;-87
2022/08/29 12:52:06;;;;;;;;;;;;;;;32.86;35.35;99831.25;4409556;32;34962;-87
2022/08/29 12:54:40;;;;;;;;;;;;;;;32.32;35.32;99829.50;4415002;32;33352;-87
2022/08/29 12:57:19;;;;;;;;;;;;;;;32.58;35.83;99828.72;4405754;32;34869;-87
2022/08/29 12:59:56;;;;;;;;;;;;;;;32.67;35.18;99828.53;4387048;32;33212;-87
2022/08/29 13:02:33;;;;;;;;;;;;;;;33.12;34.57;99815.88;4384393;32;33326;-87
2022/08/29 13:05:21;;;;;;;;;;;;;;;32.82;35.40;99810.84;4397425;32;33320;-87
2022/08/29 13:07:58;;;;;;;;;;;;;;;33.24;35.09;99805.97;4413542;32;33307;-87
2022/08/29 13:10:27;;;;;;;;;;;;;;;33.04;35.72;99810.63;4386285;32;32796;-87
2022/08/29 13:13:09;;;;;;;;;;;;;;;33.13;35.98;99810.19;4416169;32;34853;-87
2022/08/29 13:15:51;;;;;;;;;;;;;;;33.33;36.05;99806.59;4408290;32;32929;-87
2022/08/29 13:18:20;;;;;;;;;;;;;;;33.01;35.94;99800.12;4406776;32;33514;-87
2022/08/29 13:21:18;;;;;;;;;;;;;;;33.20;35.53;99802.00;4402704;32;33368;-87
2022/08/29 13:23:59;;;;;;;;;;;;;;;33.07;36.06;99799.28;4393062;32;33842;-87
2022/08/29 13:26:31;;;;;;;;;;;;;;;32.76;35.46;99803.50;4397716;32;34806;-87
2022/08/29 13:29:13;;;;;;;;;;;;;;;32.45;35.77;99801.38;4377373;32;33104;-87
2022/08/29 13:31:42;;;;;;;;;;;;;;;31.98;36.34;99810.50;4389508;32;32870;-87
2022/08/29 13:34:21;;;;;;;;;;;;;;;31.76;36.76;99796.97;4388888;32;32493;-87
2022/08/29 13:37:01;;;;;;;;;;;;;;;31.34;37.71;99798.06;4398776;32;33244;-87
2022/08/29 13:39:30;;;;;;;;;;;;;;;31.19;37.80;99800.00;4415402;32;34163;-87
2022/08/29 13:42:20;;;;;;;;;;;;;;;31.14;38.23;99802.50;4410158;32;34321;-87
2022/08/29 13:44:48;;;;;;;;;;;;;;;31.39;38.06;99794.72;4408936;32;32911;-87
2022/08/29 13:47:17;;;;;;;;;;;;;;;31.24;37.85;99801.13;4396502;32;34377;-87
2022/08/29 13:50:04;;;;;;;;;;;;;;;31.03;38.07;99801.19;4401162;32;33952;-87
2022/08/29 13:52:39;;;;;;;;;;;;;;;30.89;39.06;99802.13;4402465;32;33367;-87